Time;durP1;ratioP1;P1;durP2;ratioP2;P2;SDS_P1;SDS_P2;PMS_P1;PMS_P2;Temp;Humidity;BMP_temperature;BMP_pressure;BME280_temperature;BME280_humidity;BME280_pressure;Samples;Min_cycle;Max_cycle;Signal;HPM_P1;HPM_P2
2022/08/01 00:01:56;;;;;;;4.20;3.90;;;;;;;15.08;100.00;96456.74;108424;1268;22522;-81
2022/08/01 00:04:28;;;;;;;4.90;4.40;;;;;;;15.04;100.00;96455.65;108444;1268;22562;-80
2022/08/01 00:06:59;;;;;;;5.20;4.50;;;;;;;15.02;100.00;96451.56;108338;1268;96256;-82
2022/08/01 00:09:30;;;;;;;4.30;3.90;;;;;;;15.00;100.00;96450.70;108479;1267;25264;-81
2022/08/01 00:12:01;;;;;;;5.50;4.70;;;;;;;15.03;100.00;96450.38;108392;1268;22476;-81
2022/08/01 00:14:33;;;;;;;5.40;4.90;;;;;;;15.00;100.00;96449.05;108457;1268;22589;-81
2022/08/01 00:17:05;;;;;;;4.40;3.90;;;;;;;14.99;100.00;96444.42;108342;1268;29312;-80
2022/08/01 00:19:36;;;;;;;5.10;4.60;;;;;;;15.01;100.00;96446.51;108418;1268;22535;-81
2022/08/01 00:22:08;;;;;;;5.20;4.60;;;;;;;14.99;100.00;96447.54;108428;1267;22721;-81
2022/08/01 00:24:39;;;;;;;7.40;4.30;;;;;;;14.96;100.00;96449.39;108387;1267;22556;-81
2022/08/01 00:27:10;;;;;;;5.30;4.60;;;;;;;14.99;100.00;96441.98;108303;1267;34683;-78
2022/08/01 00:29:44;;;;;;;6.50;4.50;;;;;;;15.04;100.00;96445.63;108370;1267;22511;-78
2022/08/01 00:32:15;;;;;;;4.60;4.20;;;;;;;15.03;100.00;96447.73;108476;1267;22476;-78
2022/08/01 00:34:46;;;;;;;4.90;4.40;;;;;;;15.00;100.00;96446.75;108398;1268;22571;-78
2022/08/01 00:37:18;;;;;;;4.50;4.10;;;;;;;14.93;100.00;96446.95;108326;1268;33000;-78
2022/08/01 00:39:49;;;;;;;6.70;4.30;;;;;;;14.88;100.00;96448.06;108380;1268;23209;-78
2022/08/01 00:42:20;;;;;;;5.40;4.30;;;;;;;14.83;100.00;96448.03;108402;1267;24354;-78
2022/08/01 00:44:51;;;;;;;4.50;4.10;;;;;;;14.81;100.00;96449.09;108469;1266;22523;-78
2022/08/01 00:47:22;;;;;;;4.90;4.20;;;;;;;14.76;100.00;96444.62;108335;1268;34703;-79
2022/08/01 00:49:54;;;;;;;4.00;3.60;;;;;;;14.75;100.00;96449.61;108384;1266;23886;-79
2022/08/01 00:52:25;;;;;;;8.90;4.50;;;;;;;14.76;100.00;96453.33;108410;1268;22474;-78
2022/08/01 00:54:56;;;;;;;5.00;4.40;;;;;;;14.73;100.00;96451.96;108386;1268;24234;-78
2022/08/01 00:57:29;;;;;;;6.80;4.10;;;;;;;14.71;100.00;96451.56;108331;1268;62911;-78
2022/08/01 01:00:00;;;;;;;4.80;3.80;;;;;;;14.70;100.00;96448.08;108497;1268;24002;-78
2022/08/01 01:02:31;;;;;;;6.20;4.20;;;;;;;14.70;100.00;96449.99;108424;1267;23387;-79
2022/08/01 01:05:02;;;;;;;6.00;4.40;;;;;;;14.71;100.00;96448.42;108387;1267;22537;-78
2022/08/01 01:07:43;;;;;;;4.10;3.70;;;;;;;14.74;100.00;96441.65;108091;1268;306952;-78
2022/08/01 01:10:22;;;;;;;3.90;3.40;;;;;;;14.81;100.00;96446.70;108491;1267;22683;-79
2022/08/01 01:12:59;;;;;;;5.60;4.10;;;;;;;14.82;100.00;96445.45;108397;1267;22548;-78
2022/08/01 01:15:36;;;;;;;6.30;4.50;;;;;;;14.83;100.00;96446.48;108433;1268;22541;-78
2022/08/01 01:18:12;;;;;;;4.90;3.90;;;;;;;14.83;100.00;96439.55;108337;1267;31001;-78
2022/08/01 01:20:45;;;;;;;4.00;3.50;;;;;;;14.86;100.00;96441.50;108530;1266;23494;-77
2022/08/01 01:23:34;;;;;;;4.50;3.90;;;;;;;14.87;100.00;96438.73;108385;1268;25397;-78
2022/08/01 01:26:29;;;;;;;4.00;3.50;;;;;;;14.96;100.00;96434.60;108463;1268;22560;-78
2022/08/01 01:29:10;;;;;;;4.40;3.90;;;;;;;14.95;100.00;96434.31;108379;1268;56429;-78
2022/08/01 01:31:47;;;;;;;4.60;3.60;;;;;;;14.96;100.00;96433.96;108442;1268;22685;-78
2022/08/01 01:34:22;;;;;;;3.90;3.50;;;;;;;14.98;100.00;96433.75;108382;1267;22546;-78
2022/08/01 01:36:56;;;;;;;5.00;3.30;;;;;;;15.05;100.00;96433.75;108246;1267;92447;-78
2022/08/01 01:39:34;;;;;;;4.80;3.30;;;;;;;15.06;100.00;96431.90;108390;1267;22640;-78
2022/08/01 01:42:08;;;;;;;3.90;3.40;;;;;;;15.15;100.00;96431.12;108352;1267;22625;-78
2022/08/01 01:44:45;;;;;;;4.20;3.30;;;;;;;15.27;100.00;96439.84;108415;1268;22538;-78
2022/08/01 01:47:17;;;;;;;5.00;3.20;;;;;;;15.21;100.00;96439.64;108367;1268;28347;-78
2022/08/01 01:49:50;;;;;;;4.70;3.30;;;;;;;15.16;100.00;96442.23;108393;1267;22560;-78
2022/08/01 01:52:24;;;;;;;4.10;3.60;;;;;;;15.13;100.00;96446.39;108465;1268;22558;-78
2022/08/01 01:54:57;;;;;;;6.20;3.70;;;;;;;15.10;100.00;96442.52;108400;1268;22662;-78
2022/08/01 01:57:31;;;;;;;5.60;3.30;;;;;;;15.13;100.00;96447.07;108327;1268;26732;-79
2022/08/01 02:00:03;;;;;;;5.60;3.70;;;;;;;15.12;100.00;96443.81;108407;1268;22547;-78
2022/08/01 02:02:37;;;;;;;3.80;3.30;;;;;;;15.06;100.00;96445.14;108422;1266;22551;-79
2022/08/01 02:05:11;;;;;;;6.80;3.40;;;;;;;15.06;100.00;96446.42;108372;1268;22556;-79
2022/08/01 02:07:45;;;;;;;4.30;3.20;;;;;;;15.01;100.00;96439.84;108155;1268;131843;-79
2022/08/01 02:10:19;;;;;;;4.20;3.50;;;;;;;14.92;100.00;96441.77;108429;1268;25927;-79
2022/08/01 02:12:55;;;;;;;4.40;3.60;;;;;;;14.82;100.00;96443.32;108427;1268;22558;-79
2022/08/01 02:15:31;;;;;;;6.40;3.90;;;;;;;14.73;100.00;96438.69;108400;1268;25272;-79
2022/08/01 02:18:03;;;;;;;5.10;4.00;;;;;;;14.66;100.00;96435.26;108351;1268;28840;-78
2022/08/01 02:20:38;;;;;;;4.80;3.90;;;;;;;14.61;100.00;96434.36;108398;1268;22547;-79
2022/08/01 02:23:12;;;;;;;7.00;4.00;;;;;;;14.62;100.00;96435.38;108409;1268;22662;-78
2022/08/01 02:25:50;;;;;;;5.40;4.20;;;;;;;14.61;100.00;96440.45;108431;1267;23255;-78
2022/08/01 02:28:28;;;;;;;5.40;4.10;;;;;;;14.61;100.00;96436.34;108398;1268;28206;-78
2022/08/01 02:31:03;;;;;;;4.90;3.40;;;;;;;14.61;100.00;96441.30;108370;1267;22550;-78
2022/08/01 02:33:39;;;;;;;4.20;3.80;;;;;;;14.61;100.00;96439.70;108439;1266;22562;-79
2022/08/01 02:36:13;;;;;;;4.90;3.40;;;;;;;14.62;100.00;96440.90;108406;1267;22525;-78
2022/08/01 02:38:47;;;;;;;4.60;3.60;;;;;;;14.59;100.00;96439.55;108337;1267;30694;-78
2022/08/01 02:41:23;;;;;;;5.70;4.10;;;;;;;14.56;100.00;96444.19;108493;1267;22689;-79
2022/08/01 02:43:59;;;;;;;4.00;3.60;;;;;;;14.54;100.00;96444.94;108428;1268;22523;-78
2022/08/01 02:46:35;;;;;;;4.40;3.50;;;;;;;14.53;100.00;96447.94;108431;1267;23935;-78
2022/08/01 02:49:11;;;;;;;5.30;3.50;;;;;;;14.51;100.00;96445.73;108368;1266;36047;-78
2022/08/01 02:51:44;;;;;;;6.10;3.50;;;;;;;14.49;100.00;96445.67;108366;1268;22679;-78
2022/08/01 02:54:19;;;;;;;4.10;3.50;;;;;;;14.47;100.00;96444.88;108516;1266;23828;-78
2022/08/01 02:56:52;;;;;;;4.80;3.70;;;;;;;14.48;100.00;96440.77;108313;1267;105924;-78
2022/08/01 02:59:25;;;;;;;4.00;3.60;;;;;;;14.48;100.00;96445.55;108451;1267;25450;-78
2022/08/01 03:01:58;;;;;;;4.00;3.70;;;;;;;14.47;100.00;96445.89;108484;1265;22634;-78
2022/08/01 03:04:31;;;;;;;4.70;3.70;;;;;;;14.45;100.00;96447.45;108414;1268;23701;-79
2022/08/01 03:07:05;;;;;;;7.00;3.70;;;;;;;14.45;100.00;96446.38;108298;1268;58158;-78
2022/08/01 03:09:40;;;;;;;4.30;3.70;;;;;;;14.44;100.00;96444.69;108455;1267;22936;-78
2022/08/01 03:12:17;;;;;;;3.30;3.00;;;;;;;14.43;100.00;96444.54;108384;1267;22770;-78
2022/08/01 03:14:52;;;;;;;4.80;3.60;;;;;;;14.41;100.00;96440.48;108404;1267;22557;-78
2022/08/01 03:17:27;;;;;;;4.20;3.60;;;;;;;14.41;100.00;96441.77;108323;1267;33846;-80
2022/08/01 03:20:03;;;;;;;4.30;3.70;;;;;;;14.41;100.00;96440.66;108531;1267;22812;-81
2022/08/01 03:22:35;;;;;;;5.90;4.20;;;;;;;14.39;100.00;96443.65;108469;1268;22477;-80
2022/08/01 03:25:09;;;;;;;4.90;3.90;;;;;;;14.37;100.00;96445.77;108486;1267;22554;-81
2022/08/01 03:27:41;;;;;;;4.90;3.90;;;;;;;14.35;100.00;96448.00;108305;1267;45499;-81
2022/08/01 03:30:15;;;;;;;5.00;3.70;;;;;;;14.32;100.00;96448.60;108432;1268;22529;-81
2022/08/01 03:32:46;;;;;;;5.00;3.80;;;;;;;14.32;100.00;96449.83;108429;1267;23734;-81
2022/08/01 03:35:18;;;;;;;7.60;3.90;;;;;;;14.30;100.00;96452.39;108384;1268;22677;-80
2022/08/01 03:37:53;;;;;;;7.80;4.00;;;;;;;14.25;100.00;96451.60;108301;1267;39030;-80
2022/08/01 03:40:29;;;;;;;4.30;3.50;;;;;;;14.22;100.00;96451.36;108516;1267;22506;-81
2022/08/01 03:43:05;;;;;;;4.40;3.50;;;;;;;14.22;100.00;96450.08;108409;1267;22554;-80
2022/08/01 03:45:40;;;;;;;4.90;3.60;;;;;;;14.23;100.00;96454.91;108500;1268;22625;-80
2022/08/01 03:48:14;;;;;;;5.40;3.50;;;;;;;14.23;100.00;96455.35;108380;1267;35282;-79
2022/08/01 03:50:51;;;;;;;6.80;4.00;;;;;;;14.23;100.00;96452.84;108389;1267;24336;-79
2022/08/01 03:53:25;;;;;;;4.20;3.80;;;;;;;14.24;100.00;96459.21;108436;1267;22558;-79
2022/08/01 03:55:59;;;;;;;4.60;3.40;;;;;;;14.23;100.00;96463.06;108447;1267;22691;-79
2022/08/01 03:58:32;;;;;;;4.70;3.60;;;;;;;14.23;100.00;96465.89;108243;1267;84835;-79
2022/08/01 04:01:06;;;;;;;4.20;3.80;;;;;;;14.22;100.00;96465.60;108402;1265;22640;-82
2022/08/01 04:03:38;;;;;;;4.70;3.80;;;;;;;14.22;100.00;96466.29;108490;1266;22466;-80
2022/08/01 04:06:10;;;;;;;4.60;3.40;;;;;;;14.23;100.00;96466.64;108374;1267;22720;-81
2022/08/01 04:08:42;;;;;;;3.80;3.30;;;;;;;14.22;100.00;96464.85;108196;1267;171887;-81
2022/08/01 04:11:14;;;;;;;4.30;3.30;;;;;;;14.22;100.00;96465.18;108424;1267;22760;-80
2022/08/01 04:13:46;;;;;;;5.00;3.50;;;;;;;14.22;100.00;96466.77;108402;1267;22591;-81
2022/08/01 04:16:20;;;;;;;3.40;3.00;;;;;;;14.21;100.00;96469.28;108393;1267;22713;-81
2022/08/01 04:18:52;;;;;;;5.20;3.20;;;;;;;14.21;100.00;96475.27;108193;1267;125340;-81
2022/08/01 04:21:30;;;;;;;3.10;2.80;;;;;;;14.21;100.00;96473.34;108474;1267;22553;-81
2022/08/01 04:24:06;;;;;;;4.90;3.70;;;;;;;14.23;100.00;96473.73;108412;1268;25874;-81
2022/08/01 04:26:40;;;;;;;4.00;3.00;;;;;;;14.25;100.00;96471.02;108421;1268;22828;-81
2022/08/01 04:29:13;;;;;;;3.40;2.70;;;;;;;14.29;100.00;96475.73;108393;1267;22579;-81
2022/08/01 04:31:49;;;;;;;4.80;3.00;;;;;;;14.33;100.00;96475.09;108475;1268;23723;-81
2022/08/01 04:34:25;;;;;;;4.60;3.50;;;;;;;14.33;100.00;96476.31;108406;1267;23317;-81
2022/08/01 04:37:04;;;;;;;4.40;3.40;;;;;;;14.34;100.00;96476.60;108233;1268;106380;-81
2022/08/01 04:39:42;;;;;;;4.40;3.00;;;;;;;14.36;100.00;96478.07;108344;1267;22635;-81
2022/08/01 04:42:15;;;;;;;2.90;2.60;;;;;;;14.41;100.00;96475.81;108393;1268;23382;-81
2022/08/01 04:44:51;;;;;;;4.90;2.80;;;;;;;14.49;100.00;96475.95;108412;1265;24235;-81
2022/08/01 04:47:28;;;;;;;3.90;2.80;;;;;;;14.58;100.00;96478.42;108160;1267;119736;-81
2022/08/01 04:50:01;;;;;;;5.50;3.00;;;;;;;14.72;100.00;96484.68;108372;1267;22549;-81
2022/08/01 04:52:37;;;;;;;4.60;2.80;;;;;;;15.03;100.00;96482.27;108388;1268;25370;-81
2022/08/01 04:55:10;;;;;;;3.40;3.00;;;;;;;15.63;100.00;96482.55;108374;1268;22537;-81
2022/08/01 04:57:46;;;;;;;6.00;2.70;;;;;;;16.25;100.00;96479.98;108197;1268;101445;-81
2022/08/01 05:00:18;;;;;;;3.30;2.70;;;;;;;16.51;99.97;96475.91;108440;1268;22528;-81
2022/08/01 05:02:50;;;;;;;3.90;2.60;;;;;;;16.62;98.96;96478.38;108427;1266;22566;-81
2022/08/01 05:05:21;;;;;;;3.20;2.70;;;;;;;16.69;98.01;96475.12;108369;1268;22781;-81
2022/08/01 05:07:56;;;;;;;2.90;2.40;;;;;;;17.42;99.04;96476.33;106690;1268;1998535;-81
2022/08/01 05:10:30;;;;;;;2.90;1.90;;;;;;;19.30;98.47;96476.77;108377;1268;22586;-81
2022/08/01 05:13:04;;;;;;;2.90;2.30;;;;;;;21.68;97.04;96473.41;108268;1270;22535;-81
2022/08/01 05:15:39;;;;;;;3.30;1.90;;;;;;;24.33;94.53;96475.02;108440;1267;22569;-81
2022/08/01 05:18:11;;;;;;;3.10;1.90;;;;;;;26.69;86.49;96472.98;107450;1268;1161485;-81
2022/08/01 05:20:43;;;;;;;2.50;2.00;;;;;;;28.34;80.35;96468.52;108383;1268;22548;-81
2022/08/01 05:23:14;;;;;;;2.80;1.90;;;;;;;29.97;76.06;96468.37;108418;1267;22670;-83
2022/08/01 05:25:49;;;;;;;1.90;1.70;;;;;;;31.47;71.07;96463.69;108385;1268;22609;-83
2022/08/01 05:28:28;;;;;;;3.00;1.70;;;;;;;32.23;63.81;96460.87;108299;1268;32354;-81
2022/08/01 05:31:00;;;;;;;4.10;1.70;;;;;;;31.89;58.34;96460.98;108424;1267;22555;-82
2022/08/01 05:33:32;;;;;;;1.50;1.40;;;;;;;31.39;53.58;96463.34;108429;1268;25352;-82
2022/08/01 05:36:04;;;;;;;3.00;1.70;;;;;;;30.11;50.56;96462.77;108460;1268;22533;-81
2022/08/01 05:38:35;;;;;;;1.90;1.70;;;;;;;29.39;49.60;96466.88;108193;1268;85012;-82
2022/08/01 05:41:07;;;;;;;1.60;1.50;;;;;;;29.76;51.64;96465.33;108474;1267;23448;-82
2022/08/01 05:43:40;;;;;;;3.60;1.50;;;;;;;30.07;49.42;96467.20;108495;1267;25363;-83
2022/08/01 05:46:12;;;;;;;2.50;1.40;;;;;;;30.09;47.36;96467.42;108401;1268;22534;-83
2022/08/01 05:48:43;;;;;;;1.60;1.50;;;;;;;29.73;47.30;96470.86;106485;1267;2429535;-84
2022/08/01 05:51:14;;;;;;;2.40;1.50;;;;;;;29.20;47.39;96470.31;108618;1267;22550;-81
2022/08/01 05:53:47;;;;;;;2.10;1.50;;;;;;;28.52;47.40;96475.85;108558;1267;22763;-81
2022/08/01 05:56:19;;;;;;;1.50;1.30;;;;;;;29.28;47.72;96473.14;108622;1267;22550;-82
2022/08/01 05:58:50;;;;;;;2.00;1.50;;;;;;;29.76;45.74;96471.77;108552;1268;36866;-81
2022/08/01 06:01:25;;;;;;;2.20;1.50;;;;;;;30.51;46.22;96474.86;108608;1267;22555;-81
2022/08/01 06:03:56;;;;;;;2.90;1.50;;;;;;;31.00;45.54;96477.67;108606;1267;22658;-82
2022/08/01 06:06:28;;;;;;;2.30;1.20;;;;;;;30.67;45.94;96481.91;108569;1267;22533;-81
2022/08/01 06:08:59;;;;;;;2.80;1.60;;;;;;;32.09;45.91;96484.85;108395;1268;71427;-79
2022/08/01 06:11:33;;;;;;;2.30;1.30;;;;;;;33.05;44.06;96490.84;108510;1267;23250;-79
2022/08/01 06:14:05;;;;;;;2.60;1.20;;;;;;;34.09;44.29;96492.80;108451;1269;23852;-79
2022/08/01 06:16:36;;;;;;;1.50;1.40;;;;;;;35.29;41.85;96488.84;108510;1267;22559;-79
2022/08/01 06:19:09;;;;;;;1.20;1.20;;;;;;;35.32;40.29;96491.59;108505;1267;64933;-81
2022/08/01 06:21:41;;;;;;;2.50;1.30;;;;;;;35.51;39.35;96491.98;108658;1267;23154;-80
2022/08/01 06:24:12;;;;;;;1.80;1.20;;;;;;;36.07;38.48;96493.08;108495;1268;22641;-79
2022/08/01 06:26:45;;;;;;;2.50;1.60;;;;;;;35.91;37.82;96489.54;107654;1267;1649119;-80
2022/08/01 06:29:20;;;;;;;2.50;1.40;;;;;;;36.25;37.67;96492.60;108479;1267;22643;-79
2022/08/01 06:31:53;;;;;;;3.00;1.50;;;;;;;36.25;35.98;96494.80;108501;1268;22724;-79
2022/08/01 06:34:26;;;;;;;1.70;1.60;;;;;;;35.88;35.28;96489.05;108468;1268;24286;-80
2022/08/01 06:36:58;;;;;;;2.80;1.50;;;;;;;36.10;36.45;96493.02;107125;1267;1644864;-80
2022/08/01 06:39:36;;;;;;;2.80;1.40;;;;;;;37.01;36.26;96494.38;108440;1268;22461;-79
2022/08/01 06:42:09;;;;;;;1.40;1.20;;;;;;;37.13;34.23;96495.95;108406;1268;22470;-81
2022/08/01 06:44:43;;;;;;;1.40;1.10;;;;;;;37.57;34.95;96500.61;108485;1270;22551;-81
2022/08/01 06:47:31;;;;;;;2.20;1.40;;;;;;;37.77;33.35;96501.00;107035;1268;1801132;-84
2022/08/01 06:50:09;;;;;;;2.00;1.20;;;;;;;36.98;32.07;96497.49;108489;1269;22543;-76
2022/08/01 06:52:42;;;;;;;1.60;1.30;;;;;;;36.33;31.93;96503.34;108562;1268;22535;-81
2022/08/01 06:55:14;;;;;;;1.30;1.20;;;;;;;36.20;32.82;96499.38;108543;1267;22549;-82
2022/08/01 06:57:53;;;;;;;1.20;1.10;;;;;;;37.14;32.90;96501.99;108127;1267;263823;-80
2022/08/01 07:00:26;;;;;;;2.80;1.30;;;;;;;37.86;32.00;96508.98;108465;1268;22692;-80
2022/08/01 07:02:59;;;;;;;2.40;1.20;;;;;;;38.40;31.97;96505.42;108501;1268;22667;-80
2022/08/01 07:05:31;;;;;;;1.60;1.20;;;;;;;38.84;30.53;96507.16;108547;1268;22698;-80
2022/08/01 07:08:02;;;;;;;1.10;1.10;;;;;;;38.51;29.86;96507.66;108428;1268;32204;-79
2022/08/01 07:10:33;;;;;;;2.30;1.20;;;;;;;37.63;30.05;96508.59;108480;1268;22743;-78
2022/08/01 07:13:04;;;;;;;1.20;1.10;;;;;;;37.39;29.21;96504.11;108450;1268;22592;-81
2022/08/01 07:15:35;;;;;;;1.80;0.90;;;;;;;36.79;29.52;96500.04;108523;1268;22552;-80
2022/08/01 07:18:07;;;;;;;3.00;1.30;;;;;;;36.02;30.10;96497.04;108394;1268;23796;-80
2022/08/01 07:20:40;;;;;;;1.50;1.10;;;;;;;36.45;31.06;96495.80;108459;1268;22520;-80
2022/08/01 07:23:13;;;;;;;3.90;1.50;;;;;;;36.84;31.03;96498.02;108450;1269;22545;-80
2022/08/01 07:25:44;;;;;;;1.90;1.40;;;;;;;37.22;30.43;96495.68;108475;1268;22570;-80
2022/08/01 07:28:16;;;;;;;1.90;1.10;;;;;;;36.86;29.58;96503.62;108371;1267;26185;-81
2022/08/01 07:30:47;;;;;;;2.00;1.20;;;;;;;36.81;30.00;96500.05;108429;1268;22595;-80
2022/08/01 07:33:18;;;;;;;3.30;1.30;;;;;;;36.19;29.07;96502.89;108462;1268;23123;-82
2022/08/01 07:35:49;;;;;;;2.20;1.40;;;;;;;36.11;30.22;96502.71;108483;1269;22567;-81
2022/08/01 07:38:21;;;;;;;2.20;1.30;;;;;;;37.14;30.07;96503.95;108343;1267;51658;-82
2022/08/01 07:40:54;;;;;;;1.30;1.20;;;;;;;37.77;30.11;96508.58;108610;1267;22463;-84
2022/08/01 07:43:26;;;;;;;1.10;1.00;;;;;;;38.45;27.40;96504.98;108637;1267;25229;-82
2022/08/01 07:45:57;;;;;;;1.30;1.10;;;;;;;36.92;26.94;96501.55;108693;1267;24457;-84
2022/08/01 07:48:28;;;;;;;2.10;1.10;;;;;;;36.74;28.31;96501.48;108420;1268;35746;-83
2022/08/01 07:51:00;;;;;;;2.30;1.10;;;;;;;36.53;29.00;96499.60;108571;1268;22599;-85
2022/08/01 07:53:32;;;;;;;4.20;1.20;;;;;;;37.45;28.96;96502.63;108506;1267;22546;-84
2022/08/01 07:56:04;;;;;;;3.10;1.30;;;;;;;38.09;28.65;96499.05;108520;1268;22714;-84
2022/08/01 07:58:36;;;;;;;1.80;0.90;;;;;;;38.15;27.69;96496.50;108400;1268;33005;-82
2022/08/01 08:01:07;;;;;;;1.50;1.00;;;;;;;37.81;26.30;96497.48;108516;1268;23295;-84
2022/08/01 08:03:39;;;;;;;1.90;1.10;;;;;;;38.40;26.09;96496.73;108486;1268;26011;-85
2022/08/01 08:06:10;;;;;;;1.00;0.90;;;;;;;38.99;25.49;96498.66;108515;1268;23217;-82
2022/08/01 08:08:41;;;;;;;1.60;0.70;;;;;;;37.70;24.38;96500.63;108334;1268;90335;-84
2022/08/01 08:11:12;;;;;;;1.10;0.90;;;;;;;38.00;25.92;96504.15;108476;1269;22566;-84
2022/08/01 08:13:44;;;;;;;1.80;0.90;;;;;;;39.56;25.89;96505.54;108464;1268;22583;-84
2022/08/01 08:16:15;;;;;;;0.90;0.60;;;;;;;40.70;23.46;96504.15;108415;1270;22568;-82
2022/08/01 08:18:47;;;;;;;2.00;1.00;;;;;;;40.28;22.43;96501.96;108442;1268;59907;-84
2022/08/01 08:21:18;;;;;;;2.50;1.10;;;;;;;40.64;24.74;96506.20;108513;1267;22572;-84
2022/08/01 08:26:38;;;;;;;2.60;1.00;;;;;;;43.17;21.82;96505.04;108493;1268;22576;-84
2022/08/01 08:29:11;;;;;;;2.20;1.00;;;;;;;41.18;19.84;96498.98;108532;1268;22524;-84
2022/08/01 08:31:43;;;;;;;1.60;0.90;;;;;;;38.46;21.58;96502.66;108523;1268;22586;-84
2022/08/01 08:34:14;;;;;;;1.30;0.90;;;;;;;37.32;23.01;96500.22;108507;1268;22580;-85
2022/08/01 08:36:46;;;;;;;1.30;0.90;;;;;;;37.20;23.48;96497.98;108345;1268;92215;-83
2022/08/01 08:39:17;;;;;;;2.90;1.10;;;;;;;37.52;24.29;96501.05;108490;1268;22646;-82
2022/08/01 08:41:50;;;;;;;1.10;0.80;;;;;;;38.70;24.07;96500.33;108527;1268;24274;-83
2022/08/01 08:44:22;;;;;;;1.90;0.90;;;;;;;39.87;23.39;96503.29;108516;1268;23705;-83
2022/08/01 08:47:01;;;;;;;1.90;0.80;;;;;;;41.60;24.14;96508.16;108429;1268;33319;-83
2022/08/01 08:49:36;;;;;;;1.30;0.80;;;;;;;41.96;21.40;96509.58;108542;1267;22542;-82
2022/08/01 08:52:11;;;;;;;2.50;1.10;;;;;;;40.88;22.53;96506.23;108608;1268;24266;-82
2022/08/01 08:54:45;;;;;;;1.70;1.10;;;;;;;40.34;22.43;96503.95;108536;1267;22556;-83
2022/08/01 08:57:19;;;;;;;1.60;1.20;;;;;;;40.67;23.47;96508.38;108454;1267;96963;-83
2022/08/01 08:59:53;;;;;;;1.10;0.80;;;;;;;41.40;22.19;96505.14;108599;1267;22583;-81
2022/08/01 09:02:25;;;;;;;3.70;1.20;;;;;;;40.67;21.48;96506.77;108618;1267;22628;-80
2022/08/01 09:04:57;;;;;;;2.10;0.80;;;;;;;39.39;21.58;96501.88;108570;1267;22717;-83
2022/08/01 09:07:29;;;;;;;4.30;1.00;;;;;;;37.21;22.14;96499.32;108556;1267;56118;-82
2022/08/01 09:10:03;;;;;;;1.20;0.70;;;;;;;36.11;24.88;96502.80;108620;1267;23333;-82
2022/08/01 09:12:34;;;;;;;1.60;1.10;;;;;;;35.83;23.47;96503.27;108647;1267;24202;-81
2022/08/01 09:15:07;;;;;;;3.30;1.10;;;;;;;34.40;25.28;96511.94;108574;1267;23444;-82
2022/08/01 09:17:44;;;;;;;1.90;1.50;;;;;;;33.84;25.13;96504.83;108669;1267;60071;-82
2022/08/01 09:20:29;;;;;;;1.30;1.20;;;;;;;31.82;27.25;96506.36;108633;1267;22536;-81
2022/08/01 09:23:00;;;;;;;1.40;1.10;;;;;;;29.56;29.28;96511.92;108615;1268;22585;-80
2022/08/01 09:25:50;;;;;;;2.30;1.10;;;;;;;27.61;32.49;96512.54;108594;1268;22546;-78
2022/08/01 09:28:32;;;;;;;1.50;1.20;;;;;;;26.22;34.06;96515.73;108471;1267;54355;-77
2022/08/01 09:31:08;;;;;;;1.20;1.00;;;;;;;25.63;36.62;96516.02;108574;1267;22536;-77
2022/08/01 09:33:54;;;;;;;1.60;1.10;;;;;;;25.00;37.45;96517.29;108642;1266;24232;-78
2022/08/01 09:36:27;;;;;;;1.70;1.20;;;;;;;24.63;37.95;96514.13;108672;1267;25248;-77
2022/08/01 09:39:12;;;;;;;2.10;1.50;;;;;;;24.57;38.13;96516.80;108537;1267;31343;-78
2022/08/01 09:41:44;;;;;;;2.10;1.20;;;;;;;25.06;39.07;96512.09;108620;1268;22563;-76
2022/08/01 09:44:17;;;;;;;1.60;1.10;;;;;;;25.52;39.21;96511.52;108562;1267;22524;-81
2022/08/01 09:46:54;;;;;;;2.80;1.10;;;;;;;25.35;38.63;96515.97;108480;1268;30507;-79
2022/08/01 09:49:35;;;;;;;3.80;1.20;;;;;;;25.45;38.86;96515.73;108466;1270;22674;-80
2022/08/01 09:52:16;;;;;;;2.70;1.30;;;;;;;25.39;39.63;96516.31;108459;1268;22625;-81
2022/08/01 09:54:55;;;;;;;5.10;2.10;;;;;;;25.34;39.81;96517.36;108540;1268;22561;-81
2022/08/01 09:57:27;;;;;;;2.10;1.20;;;;;;;25.49;40.43;96514.22;108402;1268;29731;-82
2022/08/01 10:00:01;;;;;;;1.80;1.20;;;;;;;25.43;39.94;96521.85;108517;1268;22529;-81
2022/08/01 10:02:35;;;;;;;4.40;1.50;;;;;;;25.10;40.24;96521.27;108474;1268;24431;-80
2022/08/01 10:05:10;;;;;;;2.00;1.30;;;;;;;24.88;40.36;96520.04;108518;1268;22629;-80
2022/08/01 10:08:00;;;;;;;2.20;1.40;;;;;;;24.75;40.13;96522.08;108507;1268;31847;-79
2022/08/01 10:10:32;;;;;;;2.80;1.30;;;;;;;24.75;40.17;96522.09;108521;1267;22876;-81
2022/08/01 10:13:04;;;;;;;2.30;1.50;;;;;;;24.78;40.34;96523.84;108527;1268;24275;-79
2022/08/01 10:15:36;;;;;;;5.20;1.70;;;;;;;24.72;40.19;96523.76;108511;1268;22552;-76
2022/08/01 10:18:12;;;;;;;3.70;1.70;;;;;;;24.58;39.95;96523.63;108416;1268;26298;-76
2022/08/01 10:20:45;;;;;;;3.20;1.50;;;;;;;24.76;40.50;96521.71;108523;1268;22648;-76
2022/08/01 10:23:17;;;;;;;2.10;1.10;;;;;;;25.02;41.66;96524.52;108481;1266;22694;-76
2022/08/01 10:25:49;;;;;;;3.00;1.60;;;;;;;25.35;41.87;96514.36;108430;1270;22736;-76
2022/08/01 10:28:22;;;;;;;2.40;1.60;;;;;;;25.61;41.39;96513.30;108419;1268;28927;-78
2022/08/01 10:30:54;;;;;;;1.60;1.40;;;;;;;25.87;41.90;96510.60;108506;1268;22527;-77
2022/08/01 10:33:26;;;;;;;2.90;1.30;;;;;;;26.24;41.96;96512.02;108521;1268;23845;-76
2022/08/01 10:35:58;;;;;;;3.70;1.40;;;;;;;26.41;41.10;96509.85;108489;1268;22517;-76
2022/08/01 10:38:31;;;;;;;2.90;1.50;;;;;;;26.36;41.06;96505.80;108315;1268;55675;-76
2022/08/01 10:41:04;;;;;;;6.90;2.40;;;;;;;26.39;40.87;96505.59;108486;1270;22644;-77
2022/08/01 10:43:38;;;;;;;2.50;1.50;;;;;;;26.42;40.41;96502.55;108477;1269;22552;-77
2022/08/01 10:46:11;;;;;;;2.70;1.60;;;;;;;26.20;39.27;96502.53;108483;1268;22525;-77
2022/08/01 10:48:48;;;;;;;4.80;2.20;;;;;;;25.93;39.36;96502.80;108203;1268;125824;-77
2022/08/01 10:51:22;;;;;;;6.30;2.20;;;;;;;25.84;39.75;96499.95;108445;1268;23913;-77
2022/08/01 10:53:57;;;;;;;5.40;1.70;;;;;;;25.92;40.14;96504.89;108428;1268;22721;-77
2022/08/01 10:56:44;;;;;;;4.00;1.60;;;;;;;26.00;41.05;96505.92;108456;1268;22649;-77
2022/08/01 10:59:22;;;;;;;2.80;1.60;;;;;;;26.14;41.24;96502.27;108442;1268;22585;-77
2022/08/01 11:02:02;;;;;;;4.60;1.60;;;;;;;26.05;40.69;96503.41;108452;1269;22519;-77
2022/08/01 11:04:50;;;;;;;2.10;1.70;;;;;;;25.92;39.89;96500.77;108456;1269;22699;-78
2022/08/01 11:07:34;;;;;;;3.90;1.60;;;;;;;25.54;40.57;96498.28;108443;1267;33566;-78
2022/08/01 11:10:11;;;;;;;3.10;1.80;;;;;;;25.36;40.79;96502.02;108569;1266;22756;-77
2022/08/01 11:12:44;;;;;;;5.00;1.70;;;;;;;25.30;40.93;96500.73;108552;1267;25258;-75
2022/08/01 11:15:27;;;;;;;3.70;1.40;;;;;;;25.41;41.46;96495.16;108596;1265;22547;-76
2022/08/01 11:18:03;;;;;;;2.60;1.50;;;;;;;25.48;40.93;96493.66;108526;1268;30335;-76
2022/08/01 11:20:57;;;;;;;3.10;1.40;;;;;;;25.55;40.99;96499.45;108422;1268;22524;-76
2022/08/01 11:23:32;;;;;;;2.10;1.50;;;;;;;25.53;41.19;96498.11;108556;1268;23020;-76
2022/08/01 11:26:23;;;;;;;4.90;1.70;;;;;;;25.52;41.52;96499.35;108559;1267;23894;-76
2022/08/01 11:29:16;;;;;;;4.60;1.80;;;;;;;25.66;41.54;96501.61;108372;1268;77907;-76
2022/08/01 11:31:51;;;;;;;2.90;1.60;;;;;;;25.67;41.80;96501.79;108395;1269;22569;-78
2022/08/01 11:34:56;;;;;;;3.90;1.90;;;;;;;25.95;41.75;96500.09;108505;1268;22600;-76
2022/08/01 11:37:29;;;;;;;3.10;1.70;;;;;;;26.03;41.15;96501.92;108515;1268;50810;-76
2022/08/01 11:40:17;;;;;;;2.50;1.60;;;;;;;25.68;41.10;96501.55;108597;1270;22622;-76
2022/08/01 11:42:49;;;;;;;2.10;1.90;;;;;;;25.34;41.70;96501.23;108540;1268;22616;-77
2022/08/01 11:45:20;;;;;;;2.90;1.60;;;;;;;25.00;42.29;96508.46;108520;1268;25374;-77
2022/08/01 11:47:53;;;;;;;3.00;1.60;;;;;;;24.95;42.71;96501.05;108432;1268;33440;-76
2022/08/01 11:50:39;;;;;;;3.60;1.60;;;;;;;25.12;42.65;96500.37;108567;1268;25245;-76
2022/08/01 11:53:10;;;;;;;2.60;1.60;;;;;;;25.23;42.58;96499.92;108626;1268;24210;-76
2022/08/01 11:55:49;;;;;;;2.90;1.70;;;;;;;25.28;43.32;96495.99;108481;1268;22586;-77
2022/08/01 11:58:25;;;;;;;7.10;1.80;;;;;;;25.01;42.45;96499.48;108508;1268;33689;-76